sensor_id;sensor_type;location;lat;lon;timestamp;P1;durP1;ratioP1;P2;durP2;ratioP2
29238;SDS011;16267;48.194;11.546;2022-09-01T04:17:00;22.23;;;17.63;;
29238;SDS011;16267;48.194;11.546;2022-09-01T04:19:44;21.73;;;18.98;;
29238;SDS011;16267;48.194;11.546;2022-09-01T04:22:11;25.33;;;18.98;;
29238;SDS011;16267;48.194;11.546;2022-09-01T04:24:41;21.50;;;18.70;;
29238;SDS011;16267;48.194;11.546;2022-09-01T04:27:09;24.65;;;19.73;;
29238;SDS011;16267;48.194;11.546;2022-09-01T04:29:36;23.95;;;19.95;;
29238;SDS011;16267;48.194;11.546;2022-09-01T04:32:03;29.05;;;21.20;;
29238;SDS011;16267;48.194;11.546;2022-09-01T04:34:34;26.90;;;21.98;;
29238;SDS011;16267;48.194;11.546;2022-09-01T04:37:12;27.63;;;21.08;;
29238;SDS011;16267;48.194;11.546;2022-09-01T04:39:47;25.25;;;21.52;;
29238;SDS011;16267;48.194;11.546;2022-09-01T04:42:18;28.58;;;22.73;;
29238;SDS011;16267;48.194;11.546;2022-09-01T04:44:48;26.50;;;21.00;;
29238;SDS011;16267;48.194;11.546;2022-09-01T04:47:15;26.02;;;21.45;;
29238;SDS011;16267;48.194;11.546;2022-09-01T04:49:44;30.25;;;21.92;;
29238;SDS011;16267;48.194;11.546;2022-09-01T04:52:12;25.05;;;21.45;;
29238;SDS011;16267;48.194;11.546;2022-09-01T04:54:38;27.63;;;22.45;;
29238;SDS011;16267;48.194;11.546;2022-09-01T04:57:05;27.85;;;22.50;;
29238;SDS011;16267;48.194;11.546;2022-09-01T04:59:31;25.90;;;21.17;;
29238;SDS011;16267;48.194;11.546;2022-09-01T05:01:58;24.92;;;21.20;;
29238;SDS011;16267;48.194;11.546;2022-09-01T05:04:26;24.83;;;21.00;;
29238;SDS011;16267;48.194;11.546;2022-09-01T05:06:57;24.25;;;21.23;;
29238;SDS011;16267;48.194;11.546;2022-09-01T05:09:29;26.42;;;21.95;;
29238;SDS011;16267;48.194;11.546;2022-09-01T05:12:01;28.83;;;21.90;;
29238;SDS011;16267;48.194;11.546;2022-09-01T05:14:42;25.73;;;20.83;;
29238;SDS011;16267;48.194;11.546;2022-09-01T05:17:12;24.42;;;20.67;;
29238;SDS011;16267;48.194;11.546;2022-09-01T05:19:39;25.98;;;20.45;;
29238;SDS011;16267;48.194;11.546;2022-09-01T05:22:09;23.58;;;20.33;;
29238;SDS011;16267;48.194;11.546;2022-09-01T05:24:35;24.88;;;20.52;;
29238;SDS011;16267;48.194;11.546;2022-09-01T05:27:05;27.25;;;21.50;;
29238;SDS011;16267;48.194;11.546;2022-09-01T05:29:32;25.30;;;20.65;;
29238;SDS011;16267;48.194;11.546;2022-09-01T05:32:03;24.50;;;19.92;;
29238;SDS011;16267;48.194;11.546;2022-09-01T05:34:34;26.85;;;21.55;;
29238;SDS011;16267;48.194;11.546;2022-09-01T05:37:03;27.15;;;21.42;;
29238;SDS011;16267;48.194;11.546;2022-09-01T05:39:30;30.38;;;21.67;;
29238;SDS011;16267;48.194;11.546;2022-09-01T05:41:57;25.58;;;21.67;;
29238;SDS011;16267;48.194;11.546;2022-09-01T05:44:23;25.55;;;20.80;;
29238;SDS011;16267;48.194;11.546;2022-09-01T05:46:50;25.83;;;19.17;;
29238;SDS011;16267;48.194;11.546;2022-09-01T05:49:17;23.77;;;20.27;;
29238;SDS011;16267;48.194;11.546;2022-09-01T05:51:47;24.30;;;20.80;;
29238;SDS011;16267;48.194;11.546;2022-09-01T05:54:20;22.80;;;18.02;;
29238;SDS011;16267;48.194;11.546;2022-09-01T05:56:51;22.77;;;18.67;;
29238;SDS011;16267;48.194;11.546;2022-09-01T05:59:18;21.08;;;16.90;;
29238;SDS011;16267;48.194;11.546;2022-09-01T06:01:45;20.83;;;17.20;;
29238;SDS011;16267;48.194;11.546;2022-09-01T06:04:12;20.88;;;17.63;;
29238;SDS011;16267;48.194;11.546;2022-09-01T06:06:39;22.77;;;17.38;;
29238;SDS011;16267;48.194;11.546;2022-09-01T06:09:10;20.47;;;16.87;;
29238;SDS011;16267;48.194;11.546;2022-09-01T06:11:39;20.45;;;15.70;;
29238;SDS011;16267;48.194;11.546;2022-09-01T06:14:05;17.70;;;14.63;;
29238;SDS011;16267;48.194;11.546;2022-09-01T06:16:32;20.80;;;15.35;;
29238;SDS011;16267;48.194;11.546;2022-09-01T06:19:01;19.20;;;16.67;;
29238;SDS011;16267;48.194;11.546;2022-09-01T06:21:27;21.38;;;18.00;;
29238;SDS011;16267;48.194;11.546;2022-09-01T06:23:53;19.70;;;16.67;;
29238;SDS011;16267;48.194;11.546;2022-09-01T06:26:26;19.80;;;16.52;;
29238;SDS011;16267;48.194;11.546;2022-09-01T06:31:26;22.58;;;16.48;;
29238;SDS011;16267;48.194;11.546;2022-09-01T06:33:58;20.63;;;17.25;;
29238;SDS011;16267;48.194;11.546;2022-09-01T06:36:26;21.98;;;16.17;;
29238;SDS011;16267;48.194;11.546;2022-09-01T06:38:53;17.80;;;14.70;;
29238;SDS011;16267;48.194;11.546;2022-09-01T06:41:20;17.63;;;14.85;;
29238;SDS011;16267;48.194;11.546;2022-09-01T06:43:50;18.38;;;13.60;;
29238;SDS011;16267;48.194;11.546;2022-09-01T06:46:18;17.13;;;14.57;;
29238;SDS011;16267;48.194;11.546;2022-09-01T06:48:48;18.50;;;15.60;;
29238;SDS011;16267;48.194;11.546;2022-09-01T06:51:18;17.15;;;14.27;;
29238;SDS011;16267;48.194;11.546;2022-09-01T06:53:47;18.33;;;14.67;;
29238;SDS011;16267;48.194;11.546;2022-09-01T06:56:20;16.48;;;13.45;;
29238;SDS011;16267;48.194;11.546;2022-09-01T06:58:50;19.30;;;15.05;;
29238;SDS011;16267;48.194;11.546;2022-09-01T07:01:17;18.55;;;14.60;;
29238;SDS011;16267;48.194;11.546;2022-09-01T07:03:46;20.27;;;14.77;;
29238;SDS011;16267;48.194;11.546;2022-09-01T07:06:16;18.42;;;15.55;;
29238;SDS011;16267;48.194;11.546;2022-09-01T07:08:49;19.13;;;14.10;;
29238;SDS011;16267;48.194;11.546;2022-09-01T07:11:19;19.48;;;15.73;;
29238;SDS011;16267;48.194;11.546;2022-09-01T07:13:52;16.75;;;14.70;;
29238;SDS011;16267;48.194;11.546;2022-09-01T07:16:28;18.00;;;14.43;;
29238;SDS011;16267;48.194;11.546;2022-09-01T07:19:00;17.77;;;14.55;;
29238;SDS011;16267;48.194;11.546;2022-09-01T07:21:27;22.13;;;14.23;;
29238;SDS011;16267;48.194;11.546;2022-09-01T07:23:56;18.88;;;14.48;;
29238;SDS011;16267;48.194;11.546;2022-09-01T07:26:25;19.77;;;14.70;;
29238;SDS011;16267;48.194;11.546;2022-09-01T07:28:53;15.95;;;13.45;;
29238;SDS011;16267;48.194;11.546;2022-09-01T07:31:24;15.30;;;13.65;;
29238;SDS011;16267;48.194;11.546;2022-09-01T07:34:00;19.80;;;14.00;;
29238;SDS011;16267;48.194;11.546;2022-09-01T07:36:30;18.77;;;13.80;;
29238;SDS011;16267;48.194;11.546;2022-09-01T07:38:57;17.67;;;14.15;;
29238;SDS011;16267;48.194;11.546;2022-09-01T07:41:24;19.02;;;14.57;;
29238;SDS011;16267;48.194;11.546;2022-09-01T07:43:51;16.58;;;14.57;;
29238;SDS011;16267;48.194;11.546;2022-09-01T07:46:19;16.63;;;14.00;;
29238;SDS011;16267;48.194;11.546;2022-09-01T07:48:47;15.77;;;13.38;;
29238;SDS011;16267;48.194;11.546;2022-09-01T07:51:14;15.07;;;12.77;;
29238;SDS011;16267;48.194;11.546;2022-09-01T07:53:44;15.05;;;12.20;;
29238;SDS011;16267;48.194;11.546;2022-09-01T07:56:16;12.52;;;10.95;;
29238;SDS011;16267;48.194;11.546;2022-09-01T07:58:45;11.93;;;10.20;;
29238;SDS011;16267;48.194;11.546;2022-09-01T08:01:14;12.43;;;9.80;;
29238;SDS011;16267;48.194;11.546;2022-09-01T08:03:46;13.57;;;10.25;;
29238;SDS011;16267;48.194;11.546;2022-09-01T08:06:19;11.93;;;10.07;;
29238;SDS011;16267;48.194;11.546;2022-09-01T08:08:50;12.73;;;9.48;;
29238;SDS011;16267;48.194;11.546;2022-09-01T08:11:24;12.85;;;9.52;;
29238;SDS011;16267;48.194;11.546;2022-09-01T08:13:53;15.48;;;10.20;;
29238;SDS011;16267;48.194;11.546;2022-09-01T08:16:23;13.43;;;9.52;;
29238;SDS011;16267;48.194;11.546;2022-09-01T08:18:50;12.02;;;9.52;;
29238;SDS011;16267;48.194;11.546;2022-09-01T08:21:16;12.10;;;9.55;;
29238;SDS011;16267;48.194;11.546;2022-09-01T08:23:46;10.88;;;9.25;;
29238;SDS011;16267;48.194;11.546;2022-09-01T08:26:13;8.90;;;8.00;;
29238;SDS011;16267;48.194;11.546;2022-09-01T08:28:41;9.93;;;8.05;;
29238;SDS011;16267;48.194;11.546;2022-09-01T08:31:08;11.95;;;8.40;;
29238;SDS011;16267;48.194;11.546;2022-09-01T08:33:38;11.23;;;8.23;;
29238;SDS011;16267;48.194;11.546;2022-09-01T08:36:07;10.05;;;8.40;;
29238;SDS011;16267;48.194;11.546;2022-09-01T08:38:36;13.70;;;8.07;;
29238;SDS011;16267;48.194;11.546;2022-09-01T08:41:04;10.93;;;8.43;;
29238;SDS011;16267;48.194;11.546;2022-09-01T08:47:11;11.38;;;9.20;;
29238;SDS011;16267;48.194;11.546;2022-09-01T08:49:41;10.50;;;8.77;;
29238;SDS011;16267;48.194;11.546;2022-09-01T08:55:01;14.10;;;9.60;;
29238;SDS011;16267;48.194;11.546;2022-09-01T08:57:52;11.02;;;9.13;;
29238;SDS011;16267;48.194;11.546;2022-09-01T09:00:23;14.63;;;9.70;;
29238;SDS011;16267;48.194;11.546;2022-09-01T09:03:01;11.77;;;9.20;;
29238;SDS011;16267;48.194;11.546;2022-09-01T09:14:13;13.98;;;9.10;;
29238;SDS011;16267;48.194;11.546;2022-09-01T09:16:57;14.38;;;9.35;;
29238;SDS011;16267;48.194;11.546;2022-09-01T09:19:36;11.65;;;9.45;;
29238;SDS011;16267;48.194;11.546;2022-09-01T09:22:10;11.53;;;8.47;;
29238;SDS011;16267;48.194;11.546;2022-09-01T09:24:58;14.40;;;9.05;;
29238;SDS011;16267;48.194;11.546;2022-09-01T09:27:56;14.63;;;8.85;;
29238;SDS011;16267;48.194;11.546;2022-09-01T09:30:23;17.85;;;8.55;;
29238;SDS011;16267;48.194;11.546;2022-09-01T09:32:59;10.18;;;8.07;;
29238;SDS011;16267;48.194;11.546;2022-09-01T09:41:01;10.93;;;7.45;;
29238;SDS011;16267;48.194;11.546;2022-09-01T09:49:26;10.07;;;7.15;;
29238;SDS011;16267;48.194;11.546;2022-09-01T09:54:34;7.63;;;6.05;;
29238;SDS011;16267;48.194;11.546;2022-09-01T09:57:09;8.32;;;6.00;;
29238;SDS011;16267;48.194;11.546;2022-09-01T09:59:52;9.15;;;6.20;;
29238;SDS011;16267;48.194;11.546;2022-09-01T10:02:32;7.00;;;4.60;;
29238;SDS011;16267;48.194;11.546;2022-09-01T10:08:10;7.35;;;5.28;;
29238;SDS011;16267;48.194;11.546;2022-09-01T10:10:58;5.70;;;3.80;;
29238;SDS011;16267;48.194;11.546;2022-09-01T10:13:25;7.07;;;4.35;;
29238;SDS011;16267;48.194;11.546;2022-09-01T10:15:56;8.18;;;4.13;;
29238;SDS011;16267;48.194;11.546;2022-09-01T10:18:29;5.28;;;3.97;;
29238;SDS011;16267;48.194;11.546;2022-09-01T10:23:32;5.82;;;4.50;;
29238;SDS011;16267;48.194;11.546;2022-09-01T10:26:12;13.13;;;3.72;;
29238;SDS011;16267;48.194;11.546;2022-09-01T10:29:00;5.38;;;3.63;;
29238;SDS011;16267;48.194;11.546;2022-09-01T10:31:43;6.82;;;4.20;;
29238;SDS011;16267;48.194;11.546;2022-09-01T10:34:10;4.47;;;3.38;;
29238;SDS011;16267;48.194;11.546;2022-09-01T10:36:42;7.32;;;3.97;;
29238;SDS011;16267;48.194;11.546;2022-09-01T10:39:13;6.05;;;3.25;;
29238;SDS011;16267;48.194;11.546;2022-09-01T10:41:44;4.45;;;3.38;;
29238;SDS011;16267;48.194;11.546;2022-09-01T10:44:34;6.32;;;3.15;;
29238;SDS011;16267;48.194;11.546;2022-09-01T10:47:25;4.22;;;2.75;;
29238;SDS011;16267;48.194;11.546;2022-09-01T10:50:02;5.53;;;3.35;;
29238;SDS011;16267;48.194;11.546;2022-09-01T10:52:58;3.58;;;2.00;;
29238;SDS011;16267;48.194;11.546;2022-09-01T10:55:30;5.20;;;2.60;;
29238;SDS011;16267;48.194;11.546;2022-09-01T11:04:11;2.63;;;2.08;;
29238;SDS011;16267;48.194;11.546;2022-09-01T11:20:27;4.53;;;2.30;;
29238;SDS011;16267;48.194;11.546;2022-09-01T11:23:06;3.53;;;2.60;;
29238;SDS011;16267;48.194;11.546;2022-09-01T11:30:58;3.70;;;1.90;;
29238;SDS011;16267;48.194;11.546;2022-09-01T11:39:23;3.53;;;2.13;;
29238;SDS011;16267;48.194;11.546;2022-09-01T11:42:26;7.00;;;1.95;;
29238;SDS011;16267;48.194;11.546;2022-09-01T11:45:20;3.15;;;2.00;;
29238;SDS011;16267;48.194;11.546;2022-09-01T11:47:55;2.60;;;2.17;;
29238;SDS011;16267;48.194;11.546;2022-09-01T11:50:33;5.35;;;2.15;;
29238;SDS011;16267;48.194;11.546;2022-09-01T11:53:05;5.90;;;1.90;;
29238;SDS011;16267;48.194;11.546;2022-09-01T11:55:45;5.50;;;1.67;;
29238;SDS011;16267;48.194;11.546;2022-09-01T11:58:28;4.50;;;1.95;;
29238;SDS011;16267;48.194;11.546;2022-09-01T12:03:45;3.23;;;2.13;;
29238;SDS011;16267;48.194;11.546;2022-09-01T12:06:20;3.53;;;2.10;;
29238;SDS011;16267;48.194;11.546;2022-09-01T12:11:20;5.03;;;2.47;;
29238;SDS011;16267;48.194;11.546;2022-09-01T12:14:04;3.65;;;2.47;;
29238;SDS011;16267;48.194;11.546;2022-09-01T12:16:34;7.80;;;2.80;;
29238;SDS011;16267;48.194;11.546;2022-09-01T12:19:03;7.68;;;2.67;;
29238;SDS011;16267;48.194;11.546;2022-09-01T12:21:31;4.68;;;2.78;;
29238;SDS011;16267;48.194;11.546;2022-09-01T12:24:16;7.18;;;3.00;;
29238;SDS011;16267;48.194;11.546;2022-09-01T12:26:50;3.60;;;2.85;;
29238;SDS011;16267;48.194;11.546;2022-09-01T12:29:21;2.58;;;2.38;;
29238;SDS011;16267;48.194;11.546;2022-09-01T12:31:48;5.88;;;2.80;;
29238;SDS011;16267;48.194;11.546;2022-09-01T12:37:24;1.98;;;1.77;;
29238;SDS011;16267;48.194;11.546;2022-09-01T12:39:53;3.72;;;2.05;;
29238;SDS011;16267;48.194;11.546;2022-09-01T12:49:58;3.60;;;1.75;;
29238;SDS011;16267;48.194;11.546;2022-09-01T12:52:26;4.40;;;1.88;;
29238;SDS011;16267;48.194;11.546;2022-09-01T12:58:08;3.45;;;1.90;;
29238;SDS011;16267;48.194;11.546;2022-09-01T13:00:17;3.22;;;2.20;;
29238;SDS011;16267;48.194;11.546;2022-09-01T13:03:07;2.90;;;1.80;;
29238;SDS011;16267;48.194;11.546;2022-09-01T13:05:42;3.67;;;2.17;;
29238;SDS011;16267;48.194;11.546;2022-09-01T13:08:20;5.10;;;2.28;;
29238;SDS011;16267;48.194;11.546;2022-09-01T13:10:54;4.72;;;1.90;;
29238;SDS011;16267;48.194;11.546;2022-09-01T13:13:28;2.80;;;1.90;;
29238;SDS011;16267;48.194;11.546;2022-09-01T13:15:55;5.85;;;1.80;;
29238;SDS011;16267;48.194;11.546;2022-09-01T13:18:36;3.33;;;2.00;;
29238;SDS011;16267;48.194;11.546;2022-09-01T13:21:03;6.10;;;1.77;;
29238;SDS011;16267;48.194;11.546;2022-09-01T13:23:30;2.13;;;1.65;;
29238;SDS011;16267;48.194;11.546;2022-09-01T13:25:56;4.28;;;2.15;;
29238;SDS011;16267;48.194;11.546;2022-09-01T13:28:23;5.50;;;1.70;;
29238;SDS011;16267;48.194;11.546;2022-09-01T13:30:57;4.20;;;2.05;;
29238;SDS011;16267;48.194;11.546;2022-09-01T13:33:29;3.53;;;1.80;;
29238;SDS011;16267;48.194;11.546;2022-09-01T13:35:57;2.78;;;1.70;;
29238;SDS011;16267;48.194;11.546;2022-09-01T13:38:23;3.75;;;2.10;;
29238;SDS011;16267;48.194;11.546;2022-09-01T13:40:49;6.20;;;1.98;;
29238;SDS011;16267;48.194;11.546;2022-09-01T13:43:16;5.38;;;1.98;;
29238;SDS011;16267;48.194;11.546;2022-09-01T13:45:45;3.33;;;1.80;;
29238;SDS011;16267;48.194;11.546;2022-09-01T13:48:12;3.67;;;1.90;;
29238;SDS011;16267;48.194;11.546;2022-09-01T13:50:39;1.92;;;1.73;;
29238;SDS011;16267;48.194;11.546;2022-09-01T13:53:06;3.33;;;1.75;;
29238;SDS011;16267;48.194;11.546;2022-09-01T13:55:34;3.25;;;1.50;;
29238;SDS011;16267;48.194;11.546;2022-09-01T13:58:03;4.93;;;1.85;;
29238;SDS011;16267;48.194;11.546;2022-09-01T14:00:31;5.43;;;1.70;;
29238;SDS011;16267;48.194;11.546;2022-09-01T14:03:04;2.42;;;1.60;;
29238;SDS011;16267;48.194;11.546;2022-09-01T14:05:37;2.78;;;1.70;;
29238;SDS011;16267;48.194;11.546;2022-09-01T14:08:14;2.17;;;1.58;;
29238;SDS011;16267;48.194;11.546;2022-09-01T14:10:44;5.18;;;1.80;;
29238;SDS011;16267;48.194;11.546;2022-09-01T14:13:14;3.03;;;1.80;;
29238;SDS011;16267;48.194;11.546;2022-09-01T14:15:41;3.05;;;1.70;;
29238;SDS011;16267;48.194;11.546;2022-09-01T14:18:09;6.20;;;1.80;;
29238;SDS011;16267;48.194;11.546;2022-09-01T14:20:37;2.65;;;1.77;;
29238;SDS011;16267;48.194;11.546;2022-09-01T14:23:06;1.95;;;1.45;;
29238;SDS011;16267;48.194;11.546;2022-09-01T14:25:34;2.97;;;1.58;;
29238;SDS011;16267;48.194;11.546;2022-09-01T14:28:06;4.00;;;1.75;;
29238;SDS011;16267;48.194;11.546;2022-09-01T14:30:32;4.60;;;1.73;;
29238;SDS011;16267;48.194;11.546;2022-09-01T14:32:58;5.22;;;1.88;;
29238;SDS011;16267;48.194;11.546;2022-09-01T14:35:25;4.63;;;1.85;;
29238;SDS011;16267;48.194;11.546;2022-09-01T14:37:52;2.70;;;1.58;;
29238;SDS011;16267;48.194;11.546;2022-09-01T14:40:20;2.08;;;1.48;;
29238;SDS011;16267;48.194;11.546;2022-09-01T14:42:48;3.70;;;1.83;;
29238;SDS011;16267;48.194;11.546;2022-09-01T14:45:21;2.05;;;1.60;;
29238;SDS011;16267;48.194;11.546;2022-09-01T14:47:51;6.13;;;1.98;;
29238;SDS011;16267;48.194;11.546;2022-09-01T14:50:19;2.88;;;1.55;;
29238;SDS011;16267;48.194;11.546;2022-09-01T14:52:47;1.92;;;1.30;;
29238;SDS011;16267;48.194;11.546;2022-09-01T14:55:14;2.67;;;1.55;;
29238;SDS011;16267;48.194;11.546;2022-09-01T14:57:41;2.13;;;1.33;;
29238;SDS011;16267;48.194;11.546;2022-09-01T15:00:07;3.90;;;1.25;;
29238;SDS011;16267;48.194;11.546;2022-09-01T15:02:36;4.55;;;1.20;;
29238;SDS011;16267;48.194;11.546;2022-09-01T15:05:07;3.63;;;1.20;;
29238;SDS011;16267;48.194;11.546;2022-09-01T15:07:34;4.03;;;1.20;;
29238;SDS011;16267;48.194;11.546;2022-09-01T15:10:00;3.08;;;1.40;;
29238;SDS011;16267;48.194;11.546;2022-09-01T15:12:28;2.33;;;1.20;;
29238;SDS011;16267;48.194;11.546;2022-09-01T15:14:55;3.80;;;1.02;;
29238;SDS011;16267;48.194;11.546;2022-09-01T15:17:22;5.35;;;1.40;;
29238;SDS011;16267;48.194;11.546;2022-09-01T15:19:51;2.10;;;1.38;;
29238;SDS011;16267;48.194;11.546;2022-09-01T15:22:17;4.03;;;1.10;;
29238;SDS011;16267;48.194;11.546;2022-09-01T15:24:44;5.15;;;1.40;;
29238;SDS011;16267;48.194;11.546;2022-09-01T15:27:10;5.05;;;1.45;;
29238;SDS011;16267;48.194;11.546;2022-09-01T15:29:36;1.70;;;1.23;;
29238;SDS011;16267;48.194;11.546;2022-09-01T15:34:47;1.67;;;1.10;;
29238;SDS011;16267;48.194;11.546;2022-09-01T15:37:12;3.53;;;1.38;;
29238;SDS011;16267;48.194;11.546;2022-09-01T15:39:38;3.35;;;1.00;;
29238;SDS011;16267;48.194;11.546;2022-09-01T15:42:04;2.40;;;1.40;;
29238;SDS011;16267;48.194;11.546;2022-09-01T15:44:30;4.90;;;1.75;;
29238;SDS011;16267;48.194;11.546;2022-09-01T15:46:56;1.85;;;1.23;;
29238;SDS011;16267;48.194;11.546;2022-09-01T15:49:22;3.67;;;1.30;;
29238;SDS011;16267;48.194;11.546;2022-09-01T15:51:47;1.40;;;1.10;;
29238;SDS011;16267;48.194;11.546;2022-09-01T15:54:16;2.67;;;1.30;;
29238;SDS011;16267;48.194;11.546;2022-09-01T15:56:44;3.28;;;1.20;;
29238;SDS011;16267;48.194;11.546;2022-09-01T15:59:12;2.40;;;1.30;;
29238;SDS011;16267;48.194;11.546;2022-09-01T16:01:41;3.65;;;1.42;;
29238;SDS011;16267;48.194;11.546;2022-09-01T16:04:10;1.88;;;0.98;;
29238;SDS011;16267;48.194;11.546;2022-09-01T16:06:40;2.58;;;1.40;;
29238;SDS011;16267;48.194;11.546;2022-09-01T16:09:10;1.65;;;1.00;;
29238;SDS011;16267;48.194;11.546;2022-09-01T16:11:37;1.92;;;1.27;;
29238;SDS011;16267;48.194;11.546;2022-09-01T16:14:04;2.20;;;1.27;;
29238;SDS011;16267;48.194;11.546;2022-09-01T16:24:54;4.03;;;1.30;;
29238;SDS011;16267;48.194;11.546;2022-09-01T16:27:37;2.03;;;1.20;;
29238;SDS011;16267;48.194;11.546;2022-09-01T16:30:29;3.73;;;1.40;;
29238;SDS011;16267;48.194;11.546;2022-09-01T16:32:57;3.22;;;1.42;;
29238;SDS011;16267;48.194;11.546;2022-09-01T16:35:40;1.85;;;1.10;;
29238;SDS011;16267;48.194;11.546;2022-09-01T16:38:40;2.83;;;1.40;;
29238;SDS011;16267;48.194;11.546;2022-09-01T16:52:46;4.47;;;1.08;;
29238;SDS011;16267;48.194;11.546;2022-09-01T16:58:21;2.75;;;1.33;;
29238;SDS011;16267;48.194;11.546;2022-09-01T17:12:54;4.65;;;1.40;;
29238;SDS011;16267;48.194;11.546;2022-09-01T17:15:31;1.80;;;1.40;;
29238;SDS011;16267;48.194;11.546;2022-09-01T17:20:47;1.80;;;1.40;;
29238;SDS011;16267;48.194;11.546;2022-09-01T17:23:23;3.05;;;1.30;;
29238;SDS011;16267;48.194;11.546;2022-09-01T17:28:59;1.52;;;1.30;;
29238;SDS011;16267;48.194;11.546;2022-09-01T17:42:59;3.22;;;1.15;;
29238;SDS011;16267;48.194;11.546;2022-09-01T17:45:38;1.80;;;1.30;;
29238;SDS011;16267;48.194;11.546;2022-09-01T17:48:38;5.30;;;1.25;;
29238;SDS011;16267;48.194;11.546;2022-09-01T17:51:20;2.13;;;1.30;;
29238;SDS011;16267;48.194;11.546;2022-09-01T17:57:05;2.80;;;1.35;;
29238;SDS011;16267;48.194;11.546;2022-09-01T18:03:29;2.20;;;1.02;;
29238;SDS011;16267;48.194;11.546;2022-09-01T18:09:19;5.57;;;1.70;;
29238;SDS011;16267;48.194;11.546;2022-09-01T18:11:54;3.03;;;1.58;;
29238;SDS011;16267;48.194;11.546;2022-09-01T18:14:29;5.07;;;1.52;;
29238;SDS011;16267;48.194;11.546;2022-09-01T18:17:22;1.90;;;1.30;;
29238;SDS011;16267;48.194;11.546;2022-09-01T18:20:17;1.95;;;1.38;;
29238;SDS011;16267;48.194;11.546;2022-09-01T18:22:59;2.67;;;1.60;;
29238;SDS011;16267;48.194;11.546;2022-09-01T18:28:12;2.75;;;1.30;;
29238;SDS011;16267;48.194;11.546;2022-09-01T18:33:28;2.47;;;1.50;;
29238;SDS011;16267;48.194;11.546;2022-09-01T18:39:31;3.65;;;1.60;;
29238;SDS011;16267;48.194;11.546;2022-09-01T18:42:24;3.72;;;1.80;;
29238;SDS011;16267;48.194;11.546;2022-09-01T18:59:29;5.85;;;2.53;;
29238;SDS011;16267;48.194;11.546;2022-09-01T19:26:51;3.95;;;1.95;;
29238;SDS011;16267;48.194;11.546;2022-09-01T19:29:25;2.40;;;1.73;;
29238;SDS011;16267;48.194;11.546;2022-09-01T19:32:08;2.90;;;1.60;;
29238;SDS011;16267;48.194;11.546;2022-09-01T19:34:44;3.55;;;1.75;;
29238;SDS011;16267;48.194;11.546;2022-09-01T19:37:19;2.35;;;1.55;;
29238;SDS011;16267;48.194;11.546;2022-09-01T19:39:46;4.35;;;1.70;;
29238;SDS011;16267;48.194;11.546;2022-09-01T19:50:37;6.55;;;2.00;;
29238;SDS011;16267;48.194;11.546;2022-09-01T20:01:51;3.60;;;1.90;;
29238;SDS011;16267;48.194;11.546;2022-09-01T20:04:55;4.27;;;2.07;;
29238;SDS011;16267;48.194;11.546;2022-09-01T20:10:29;3.13;;;1.73;;
29238;SDS011;16267;48.194;11.546;2022-09-01T20:16:43;3.00;;;1.50;;
29238;SDS011;16267;48.194;11.546;2022-09-01T20:19:17;2.17;;;1.38;;
29238;SDS011;16267;48.194;11.546;2022-09-01T20:22:08;3.70;;;1.50;;
29238;SDS011;16267;48.194;11.546;2022-09-01T20:27:46;3.33;;;1.60;;
29238;SDS011;16267;48.194;11.546;2022-09-01T20:30:50;3.33;;;1.58;;
29238;SDS011;16267;48.194;11.546;2022-09-01T20:33:27;2.92;;;1.80;;
29238;SDS011;16267;48.194;11.546;2022-09-01T20:36:20;5.10;;;1.90;;
29238;SDS011;16267;48.194;11.546;2022-09-01T20:38:55;5.18;;;1.45;;
29238;SDS011;16267;48.194;11.546;2022-09-01T20:41:55;3.92;;;1.90;;
29238;SDS011;16267;48.194;11.546;2022-09-01T20:44:59;2.00;;;1.70;;
29238;SDS011;16267;48.194;11.546;2022-09-01T20:47:32;4.20;;;1.37;;
29238;SDS011;16267;48.194;11.546;2022-09-01T20:49:58;6.18;;;2.08;;
29238;SDS011;16267;48.194;11.546;2022-09-01T20:52:35;3.85;;;1.77;;
29238;SDS011;16267;48.194;11.546;2022-09-01T21:06:44;5.18;;;2.20;;
29238;SDS011;16267;48.194;11.546;2022-09-01T21:12:08;2.60;;;1.63;;
29238;SDS011;16267;48.194;11.546;2022-09-01T21:18:42;4.03;;;1.80;;
29238;SDS011;16267;48.194;11.546;2022-09-01T21:21:40;4.50;;;2.03;;
29238;SDS011;16267;48.194;11.546;2022-09-01T21:24:14;2.78;;;1.95;;
29238;SDS011;16267;48.194;11.546;2022-09-01T21:26:40;5.07;;;2.15;;
29238;SDS011;16267;48.194;11.546;2022-09-01T21:32:13;6.28;;;2.40;;
29238;SDS011;16267;48.194;11.546;2022-09-01T21:34:44;4.15;;;2.15;;
29238;SDS011;16267;48.194;11.546;2022-09-01T21:37:12;2.45;;;1.67;;
29238;SDS011;16267;48.194;11.546;2022-09-01T21:39:38;5.13;;;2.33;;
29238;SDS011;16267;48.194;11.546;2022-09-01T21:42:05;3.88;;;2.20;;
29238;SDS011;16267;48.194;11.546;2022-09-01T21:44:33;4.57;;;1.98;;
29238;SDS011;16267;48.194;11.546;2022-09-01T21:47:01;5.60;;;2.17;;
29238;SDS011;16267;48.194;11.546;2022-09-01T21:49:27;4.22;;;2.13;;
29238;SDS011;16267;48.194;11.546;2022-09-01T21:51:55;3.47;;;2.00;;
29238;SDS011;16267;48.194;11.546;2022-09-01T21:54:21;2.72;;;2.08;;
29238;SDS011;16267;48.194;11.546;2022-09-01T21:56:46;4.70;;;2.05;;
29238;SDS011;16267;48.194;11.546;2022-09-01T21:59:12;3.20;;;1.88;;
